sensor_id;sensor_type;location;lat;lon;timestamp;pressure;altitude;pressure_sealevel;temperature;humidity
3780;BME280;1905;52.482;9.802;2022-11-20T00:00:52;100855.22;;;-2.00;84.21
3780;BME280;1905;52.482;9.802;2022-11-20T00:03:19;100855.25;;;-1.99;83.92
3780;BME280;1905;52.482;9.802;2022-11-20T00:05:47;100856.94;;;-1.98;83.58
3780;BME280;1905;52.482;9.802;2022-11-20T00:08:15;100856.97;;;-1.95;83.93
3780;BME280;1905;52.482;9.802;2022-11-20T00:10:42;100858.78;;;-1.88;83.25
3780;BME280;1905;52.482;9.802;2022-11-20T00:13:10;100854.47;;;-1.89;83.44
3780;BME280;1905;52.482;9.802;2022-11-20T00:15:39;100851.06;;;-1.83;83.88
3780;BME280;1905;52.482;9.802;2022-11-20T00:18:06;100840.84;;;-1.65;83.24
3780;BME280;1905;52.482;9.802;2022-11-20T00:20:34;100845.09;;;-1.74;82.94
3780;BME280;1905;52.482;9.802;2022-11-20T00:23:02;100839.94;;;-1.68;82.84
3780;BME280;1905;52.482;9.802;2022-11-20T00:25:29;100836.56;;;-1.64;82.89
3780;BME280;1905;52.482;9.802;2022-11-20T00:27:57;100839.16;;;-1.60;82.93
3780;BME280;1905;52.482;9.802;2022-11-20T00:30:24;100834.88;;;-1.56;82.46
3780;BME280;1905;52.482;9.802;2022-11-20T00:32:56;100836.59;;;-1.61;82.54
3780;BME280;1905;52.482;9.802;2022-11-20T00:35:24;100834.06;;;-1.49;82.30
3780;BME280;1905;52.482;9.802;2022-11-20T00:37:51;100838.41;;;-1.44;81.94
3780;BME280;1905;52.482;9.802;2022-11-20T00:40:19;100835.84;;;-1.44;81.89
3780;BME280;1905;52.482;9.802;2022-11-20T00:42:47;100831.50;;;-1.46;82.38
3780;BME280;1905;52.482;9.802;2022-11-20T00:45:14;100831.50;;;-1.46;82.22
3780;BME280;1905;52.482;9.802;2022-11-20T00:47:42;100834.13;;;-1.45;82.39
3780;BME280;1905;52.482;9.802;2022-11-20T00:50:11;100834.09;;;-1.46;82.56
3780;BME280;1905;52.482;9.802;2022-11-20T00:52:39;100834.16;;;-1.39;82.18
3780;BME280;1905;52.482;9.802;2022-11-20T00:55:06;100823.81;;;-1.39;81.98
3780;BME280;1905;52.482;9.802;2022-11-20T00:57:34;100821.19;;;-1.40;81.91
3780;BME280;1905;52.482;9.802;2022-11-20T01:00:02;100827.25;;;-1.38;81.98
3780;BME280;1905;52.482;9.802;2022-11-20T01:02:30;100824.66;;;-1.38;81.97
3780;BME280;1905;52.482;9.802;2022-11-20T01:04:59;100820.38;;;-1.33;81.90
3780;BME280;1905;52.482;9.802;2022-11-20T01:07:28;100828.13;;;-1.33;81.77
3780;BME280;1905;52.482;9.802;2022-11-20T01:09:55;100821.25;;;-1.31;81.73
3780;BME280;1905;52.482;9.802;2022-11-20T01:12:23;100826.44;;;-1.30;81.66
3780;BME280;1905;52.482;9.802;2022-11-20T01:14:51;100819.53;;;-1.29;81.69
3780;BME280;1905;52.482;9.802;2022-11-20T01:17:18;100821.28;;;-1.28;81.74
3780;BME280;1905;52.482;9.802;2022-11-20T01:19:48;100823.88;;;-1.28;81.70
3780;BME280;1905;52.482;9.802;2022-11-20T01:22:16;100826.47;;;-1.28;81.65
3780;BME280;1905;52.482;9.802;2022-11-20T01:24:45;100828.16;;;-1.30;81.84
3780;BME280;1905;52.482;9.802;2022-11-20T01:27:12;100819.56;;;-1.26;81.93
3780;BME280;1905;52.482;9.802;2022-11-20T01:29:40;100823.91;;;-1.25;81.66
3780;BME280;1905;52.482;9.802;2022-11-20T01:32:07;100820.44;;;-1.24;81.58
3780;BME280;1905;52.482;9.802;2022-11-20T01:34:35;100819.59;;;-1.23;81.56
3780;BME280;1905;52.482;9.802;2022-11-20T01:37:03;100800.56;;;-1.22;81.44
3780;BME280;1905;52.482;9.802;2022-11-20T01:39:30;100801.47;;;-1.23;81.32
3780;BME280;1905;52.482;9.802;2022-11-20T01:41:59;100798.88;;;-1.23;81.29
3780;BME280;1905;52.482;9.802;2022-11-20T01:44:51;100793.69;;;-1.23;81.43
3780;BME280;1905;52.482;9.802;2022-11-20T01:47:31;100791.97;;;-1.21;82.00
3780;BME280;1905;52.482;9.802;2022-11-20T01:50:05;100798.88;;;-1.23;81.57
3780;BME280;1905;52.482;9.802;2022-11-20T01:52:36;100795.41;;;-1.25;81.57
3780;BME280;1905;52.482;9.802;2022-11-20T01:55:08;100800.56;;;-1.22;81.75
3780;BME280;1905;52.482;9.802;2022-11-20T01:57:38;100793.72;;;-1.20;81.56
3780;BME280;1905;52.482;9.802;2022-11-20T02:00:09;100798.88;;;-1.20;81.62
3780;BME280;1905;52.482;9.802;2022-11-20T02:02:39;100804.03;;;-1.22;81.85
3780;BME280;1905;52.482;9.802;2022-11-20T02:05:14;100798.88;;;-1.20;81.88
3780;BME280;1905;52.482;9.802;2022-11-20T02:07:44;100798.88;;;-1.23;81.77
3780;BME280;1905;52.482;9.802;2022-11-20T02:10:13;100797.16;;;-1.23;81.71
3780;BME280;1905;52.482;9.802;2022-11-20T02:12:42;100797.16;;;-1.21;81.55
3780;BME280;1905;52.482;9.802;2022-11-20T02:15:27;100788.53;;;-1.20;81.96
3780;BME280;1905;52.482;9.802;2022-11-20T02:17:56;100785.06;;;-1.19;81.68
3780;BME280;1905;52.482;9.802;2022-11-20T02:20:23;100784.22;;;-1.15;81.31
3780;BME280;1905;52.482;9.802;2022-11-20T02:22:55;100791.13;;;-1.15;81.11
3780;BME280;1905;52.482;9.802;2022-11-20T02:25:27;100786.81;;;-1.15;81.59
3780;BME280;1905;52.482;9.802;2022-11-20T02:27:56;100781.66;;;-1.15;81.87
3780;BME280;1905;52.482;9.802;2022-11-20T02:30:23;100785.09;;;-1.13;81.35
3780;BME280;1905;52.482;9.802;2022-11-20T02:32:51;100780.75;;;-1.14;81.90
3780;BME280;1905;52.482;9.802;2022-11-20T02:35:43;100775.56;;;-1.14;81.77
3780;BME280;1905;52.482;9.802;2022-11-20T02:38:11;100766.09;;;-1.15;81.82
3780;BME280;1905;52.482;9.802;2022-11-20T02:40:41;100770.41;;;-1.14;81.33
3780;BME280;1905;52.482;9.802;2022-11-20T02:43:09;100766.97;;;-1.13;81.32
3780;BME280;1905;52.482;9.802;2022-11-20T02:45:37;100766.97;;;-1.13;81.54
3780;BME280;1905;52.482;9.802;2022-11-20T02:48:06;100766.97;;;-1.13;81.51
3780;BME280;1905;52.482;9.802;2022-11-20T02:50:37;100759.19;;;-1.13;81.63
3780;BME280;1905;52.482;9.802;2022-11-20T02:53:05;100757.47;;;-1.11;81.44
3780;BME280;1905;52.482;9.802;2022-11-20T02:55:33;100754.03;;;-1.10;81.89
3780;BME280;1905;52.482;9.802;2022-11-20T02:58:02;100757.47;;;-1.08;81.52
3780;BME280;1905;52.482;9.802;2022-11-20T03:00:30;100754.91;;;-1.06;81.50
3780;BME280;1905;52.482;9.802;2022-11-20T03:02:58;100751.44;;;-1.07;81.73
3780;BME280;1905;52.482;9.802;2022-11-20T03:05:25;100743.69;;;-1.07;81.33
3780;BME280;1905;52.482;9.802;2022-11-20T03:07:53;100756.63;;;-1.05;81.96
3780;BME280;1905;52.482;9.802;2022-11-20T03:10:21;100756.63;;;-1.05;81.94
3780;BME280;1905;52.482;9.802;2022-11-20T03:12:52;100748.88;;;-1.04;81.62
3780;BME280;1905;52.482;9.802;2022-11-20T03:15:21;100746.28;;;-1.02;82.16
3780;BME280;1905;52.482;9.802;2022-11-20T03:17:52;100741.09;;;-1.02;81.74
3780;BME280;1905;52.482;9.802;2022-11-20T03:20:20;100739.41;;;-0.99;81.84
3780;BME280;1905;52.482;9.802;2022-11-20T03:22:47;100741.13;;;-1.01;81.94
3780;BME280;1905;52.482;9.802;2022-11-20T03:25:16;100739.41;;;-0.99;81.57
3780;BME280;1905;52.482;9.802;2022-11-20T03:27:43;100732.47;;;-0.97;81.70
3780;BME280;1905;52.482;9.802;2022-11-20T03:30:12;100734.22;;;-0.96;81.42
3780;BME280;1905;52.482;9.802;2022-11-20T03:32:41;100722.97;;;-0.95;81.61
3780;BME280;1905;52.482;9.802;2022-11-20T03:35:09;100724.72;;;-0.94;81.97
3780;BME280;1905;52.482;9.802;2022-11-20T03:37:36;100722.13;;;-0.94;81.62
3780;BME280;1905;52.482;9.802;2022-11-20T03:40:05;100726.47;;;-0.90;81.27
3780;BME280;1905;52.482;9.802;2022-11-20T03:42:33;100723.88;;;-0.88;81.81
3780;BME280;1905;52.482;9.802;2022-11-20T03:45:13;100720.44;;;-0.87;81.70
3780;BME280;1905;52.482;9.802;2022-11-20T03:47:42;100721.28;;;-0.87;81.92
3780;BME280;1905;52.482;9.802;2022-11-20T03:50:11;100722.16;;;-0.88;81.81
3780;BME280;1905;52.482;9.802;2022-11-20T03:52:40;100716.13;;;-0.85;81.93
3780;BME280;1905;52.482;9.802;2022-11-20T03:55:08;100713.53;;;-0.82;81.77
3780;BME280;1905;52.482;9.802;2022-11-20T03:57:36;100721.31;;;-0.81;81.91
3780;BME280;1905;52.482;9.802;2022-11-20T04:00:04;100712.69;;;-0.80;81.77
3780;BME280;1905;52.482;9.802;2022-11-20T04:02:32;100711.81;;;-0.82;81.63
3780;BME280;1905;52.482;9.802;2022-11-20T04:05:01;100717.00;;;-0.80;81.79
3780;BME280;1905;52.482;9.802;2022-11-20T04:07:29;100717.88;;;-0.77;81.75
3780;BME280;1905;52.482;9.802;2022-11-20T04:09:56;100724.75;;;-0.76;81.79
3780;BME280;1905;52.482;9.802;2022-11-20T04:12:24;100712.69;;;-0.77;81.98
3780;BME280;1905;52.482;9.802;2022-11-20T04:14:51;100710.97;;;-0.75;81.83
3780;BME280;1905;52.482;9.802;2022-11-20T04:17:19;100707.50;;;-0.74;81.79
3780;BME280;1905;52.482;9.802;2022-11-20T04:19:49;100704.03;;;-0.76;82.05
3780;BME280;1905;52.482;9.802;2022-11-20T04:22:18;100697.16;;;-0.74;81.78
3780;BME280;1905;52.482;9.802;2022-11-20T04:24:46;100703.19;;;-0.72;81.73
3780;BME280;1905;52.482;9.802;2022-11-20T04:27:16;100695.41;;;-0.72;81.65
3780;BME280;1905;52.482;9.802;2022-11-20T04:29:44;100703.19;;;-0.67;81.67
3780;BME280;1905;52.482;9.802;2022-11-20T04:32:11;100699.72;;;-0.71;82.01
3780;BME280;1905;52.482;9.802;2022-11-20T04:34:39;100704.06;;;-0.70;81.99
3780;BME280;1905;52.482;9.802;2022-11-20T04:37:07;100692.81;;;-0.64;82.07
3780;BME280;1905;52.482;9.802;2022-11-20T04:39:35;100703.22;;;-0.63;81.84
3780;BME280;1905;52.482;9.802;2022-11-20T04:42:03;100705.81;;;-0.66;81.63
3780;BME280;1905;52.482;9.802;2022-11-20T04:44:48;100704.06;;;-0.64;81.98
3780;BME280;1905;52.482;9.802;2022-11-20T04:47:16;100687.66;;;-0.63;81.95
3780;BME280;1905;52.482;9.802;2022-11-20T04:49:44;100689.41;;;-0.60;81.94
3780;BME280;1905;52.482;9.802;2022-11-20T04:52:12;100685.94;;;-0.61;81.95
3780;BME280;1905;52.482;9.802;2022-11-20T04:54:41;100699.75;;;-0.58;81.60
3780;BME280;1905;52.482;9.802;2022-11-20T04:57:08;100692.84;;;-0.58;82.07
3780;BME280;1905;52.482;9.802;2022-11-20T04:59:40;100695.44;;;-0.56;81.69
3780;BME280;1905;52.482;9.802;2022-11-20T05:02:08;100690.25;;;-0.58;82.00
3780;BME280;1905;52.482;9.802;2022-11-20T05:04:35;100692.84;;;-0.58;82.07
3780;BME280;1905;52.482;9.802;2022-11-20T05:07:03;100691.97;;;-0.55;81.86
3780;BME280;1905;52.482;9.802;2022-11-20T05:09:31;100679.91;;;-0.52;81.82
3780;BME280;1905;52.482;9.802;2022-11-20T05:12:00;100686.81;;;-0.49;81.68
3780;BME280;1905;52.482;9.802;2022-11-20T05:14:27;100686.81;;;-0.49;81.59
3780;BME280;1905;52.482;9.802;2022-11-20T05:16:55;100681.63;;;-0.49;81.70
3780;BME280;1905;52.482;9.802;2022-11-20T05:19:23;100681.63;;;-0.49;81.88
3780;BME280;1905;52.482;9.802;2022-11-20T05:21:50;100680.75;;;-0.50;82.06
3780;BME280;1905;52.482;9.802;2022-11-20T05:24:18;100682.47;;;-0.47;81.93
3780;BME280;1905;52.482;9.802;2022-11-20T05:26:46;100680.75;;;-0.47;82.03
3780;BME280;1905;52.482;9.802;2022-11-20T05:29:15;100683.34;;;-0.45;81.93
3780;BME280;1905;52.482;9.802;2022-11-20T05:31:42;100678.16;;;-0.45;82.07
3780;BME280;1905;52.482;9.802;2022-11-20T05:34:10;100684.22;;;-0.45;81.92
3780;BME280;1905;52.482;9.802;2022-11-20T05:36:38;100683.34;;;-0.42;81.82
3780;BME280;1905;52.482;9.802;2022-11-20T05:39:05;100678.19;;;-0.41;81.79
3780;BME280;1905;52.482;9.802;2022-11-20T05:41:33;100673.84;;;-0.42;81.91
3780;BME280;1905;52.482;9.802;2022-11-20T05:44:00;100671.22;;;-0.40;81.80
3780;BME280;1905;52.482;9.802;2022-11-20T05:46:29;100668.66;;;-0.39;81.79
3780;BME280;1905;52.482;9.802;2022-11-20T05:48:57;100666.03;;;-0.40;81.96
3780;BME280;1905;52.482;9.802;2022-11-20T05:51:26;100667.78;;;-0.39;82.01
3780;BME280;1905;52.482;9.802;2022-11-20T05:53:56;100657.41;;;-0.36;81.75
3780;BME280;1905;52.482;9.802;2022-11-20T05:56:23;100666.06;;;-0.34;81.64
3780;BME280;1905;52.482;9.802;2022-11-20T05:58:51;100661.75;;;-0.34;81.72
3780;BME280;1905;52.482;9.802;2022-11-20T06:01:21;100668.66;;;-0.34;81.83
3780;BME280;1905;52.482;9.802;2022-11-20T06:03:51;100667.78;;;-0.32;81.40
3780;BME280;1905;52.482;9.802;2022-11-20T06:06:20;100659.13;;;-0.29;81.70
3780;BME280;1905;52.482;9.802;2022-11-20T06:08:48;100653.09;;;-0.28;81.36
3780;BME280;1905;52.482;9.802;2022-11-20T06:11:16;100660.84;;;-0.30;81.58
3780;BME280;1905;52.482;9.802;2022-11-20T06:13:45;100654.84;;;-0.27;81.63
3780;BME280;1905;52.482;9.802;2022-11-20T06:16:14;100660.88;;;-0.28;81.59
3780;BME280;1905;52.482;9.802;2022-11-20T06:18:42;100665.19;;;-0.26;81.39
3780;BME280;1905;52.482;9.802;2022-11-20T06:21:13;100660.00;;;-0.26;81.49
3780;BME280;1905;52.482;9.802;2022-11-20T06:23:41;100660.00;;;-0.24;81.99
3780;BME280;1905;52.482;9.802;2022-11-20T06:26:12;100659.13;;;-0.26;81.59
3780;BME280;1905;52.482;9.802;2022-11-20T06:28:41;100652.22;;;-0.24;81.50
3780;BME280;1905;52.482;9.802;2022-11-20T06:31:10;100650.50;;;-0.22;80.92
3780;BME280;1905;52.482;9.802;2022-11-20T06:33:38;100647.91;;;-0.22;81.51
3780;BME280;1905;52.482;9.802;2022-11-20T06:36:06;100653.94;;;-0.20;81.23
3780;BME280;1905;52.482;9.802;2022-11-20T06:38:38;100647.88;;;-0.18;81.61
3780;BME280;1905;52.482;9.802;2022-11-20T06:41:07;100652.22;;;-0.18;81.42
3780;BME280;1905;52.482;9.802;2022-11-20T06:43:37;100647.03;;;-0.21;81.50
3780;BME280;1905;52.482;9.802;2022-11-20T06:46:05;100642.72;;;-0.19;81.56
3780;BME280;1905;52.482;9.802;2022-11-20T06:48:33;100640.97;;;-0.20;81.33
3780;BME280;1905;52.482;9.802;2022-11-20T06:51:02;100637.50;;;-0.16;81.48
3780;BME280;1905;52.482;9.802;2022-11-20T06:53:30;100639.25;;;-0.17;81.30
3780;BME280;1905;52.482;9.802;2022-11-20T06:56:00;100634.91;;;-0.16;81.48
3780;BME280;1905;52.482;9.802;2022-11-20T06:58:29;100636.63;;;-0.15;81.42
3780;BME280;1905;52.482;9.802;2022-11-20T07:00:58;100635.78;;;-0.11;81.46
3780;BME280;1905;52.482;9.802;2022-11-20T07:03:25;100642.69;;;-0.16;81.49
3780;BME280;1905;52.482;9.802;2022-11-20T07:05:54;100635.78;;;-0.14;82.05
3780;BME280;1905;52.482;9.802;2022-11-20T07:08:22;100644.44;;;-0.17;81.56
3780;BME280;1905;52.482;9.802;2022-11-20T07:10:50;100636.66;;;-0.14;81.33
3780;BME280;1905;52.482;9.802;2022-11-20T07:13:19;100639.25;;;-0.12;81.77
3780;BME280;1905;52.482;9.802;2022-11-20T07:15:46;100640.09;;;-0.10;81.25
3780;BME280;1905;52.482;9.802;2022-11-20T07:18:14;100641.84;;;-0.09;81.60
3780;BME280;1905;52.482;9.802;2022-11-20T07:20:41;100642.69;;;-0.07;81.24
3780;BME280;1905;52.482;9.802;2022-11-20T07:23:09;100637.50;;;-0.09;81.46
3780;BME280;1905;52.482;9.802;2022-11-20T07:25:37;100640.09;;;-0.10;81.51
3780;BME280;1905;52.482;9.802;2022-11-20T07:28:04;100650.47;;;-0.07;81.53
3780;BME280;1905;52.482;9.802;2022-11-20T07:30:33;100647.88;;;-0.07;81.35
3780;BME280;1905;52.482;9.802;2022-11-20T07:33:01;100635.75;;;-0.08;81.40
3780;BME280;1905;52.482;9.802;2022-11-20T07:35:28;100647.88;;;-0.04;81.32
3780;BME280;1905;52.482;9.802;2022-11-20T07:37:56;100645.28;;;-0.04;81.36
3780;BME280;1905;52.482;9.802;2022-11-20T07:40:23;100643.53;;;-0.02;81.28
3780;BME280;1905;52.482;9.802;2022-11-20T07:42:54;100634.03;;;-0.05;81.19
3780;BME280;1905;52.482;9.802;2022-11-20T07:45:23;100634.88;;;-0.03;81.20
3780;BME280;1905;52.482;9.802;2022-11-20T07:47:52;100640.09;;;-0.04;81.28
3780;BME280;1905;52.482;9.802;2022-11-20T07:50:20;100637.47;;;0.00;81.03
3780;BME280;1905;52.482;9.802;2022-11-20T07:52:48;100640.97;;;-0.01;81.28
3780;BME280;1905;52.482;9.802;2022-11-20T07:55:15;100642.69;;;0.02;81.09
3780;BME280;1905;52.482;9.802;2022-11-20T07:57:43;100638.38;;;-0.01;81.23
3780;BME280;1905;52.482;9.802;2022-11-20T08:00:12;100642.69;;;0.05;81.08
3780;BME280;1905;52.482;9.802;2022-11-20T08:02:40;100639.19;;;0.06;81.39
3780;BME280;1905;52.482;9.802;2022-11-20T08:05:10;100634.88;;;0.08;81.40
3780;BME280;1905;52.482;9.802;2022-11-20T08:07:38;100639.19;;;0.06;81.14
3780;BME280;1905;52.482;9.802;2022-11-20T08:10:07;100646.97;;;0.06;81.25
3780;BME280;1905;52.482;9.802;2022-11-20T08:12:35;100644.38;;;0.12;81.44
3780;BME280;1905;52.482;9.802;2022-11-20T08:15:21;100642.63;;;0.14;81.44
3780;BME280;1905;52.482;9.802;2022-11-20T08:17:49;100639.19;;;0.15;81.23
3780;BME280;1905;52.482;9.802;2022-11-20T08:20:38;100638.34;;;0.13;81.65
3780;BME280;1905;52.482;9.802;2022-11-20T08:23:07;100640.91;;;0.18;81.32
3780;BME280;1905;52.482;9.802;2022-11-20T08:25:36;100641.78;;;0.18;81.13
3780;BME280;1905;52.482;9.802;2022-11-20T08:28:05;100638.28;;;0.19;81.00
3780;BME280;1905;52.482;9.802;2022-11-20T08:30:46;100633.09;;;0.22;81.15
3780;BME280;1905;52.482;9.802;2022-11-20T08:33:14;100633.09;;;0.22;81.58
3780;BME280;1905;52.482;9.802;2022-11-20T08:35:45;100642.63;;;0.23;81.28
3780;BME280;1905;52.482;9.802;2022-11-20T08:38:13;100649.53;;;0.27;81.24
3780;BME280;1905;52.482;9.802;2022-11-20T08:40:40;100647.81;;;0.26;81.28
3780;BME280;1905;52.482;9.802;2022-11-20T08:43:28;100651.28;;;0.30;81.12
3780;BME280;1905;52.482;9.802;2022-11-20T08:45:56;100651.25;;;0.33;81.36
3780;BME280;1905;52.482;9.802;2022-11-20T08:48:23;100653.84;;;0.37;81.09
3780;BME280;1905;52.482;9.802;2022-11-20T08:50:52;100651.25;;;0.37;81.06
3780;BME280;1905;52.482;9.802;2022-11-20T08:53:20;100658.16;;;0.40;80.85
3780;BME280;1905;52.482;9.802;2022-11-20T08:55:47;100646.03;;;0.42;81.05
3780;BME280;1905;52.482;9.802;2022-11-20T08:58:15;100643.44;;;0.43;80.68
3780;BME280;1905;52.482;9.802;2022-11-20T09:00:43;100645.16;;;0.47;80.60
3780;BME280;1905;52.482;9.802;2022-11-20T09:03:10;100644.28;;;0.48;80.67
3780;BME280;1905;52.482;9.802;2022-11-20T09:05:39;100630.44;;;0.48;80.63
3780;BME280;1905;52.482;9.802;2022-11-20T09:08:08;100618.28;;;0.50;80.19
3780;BME280;1905;52.482;9.802;2022-11-20T09:10:36;100611.34;;;0.52;80.72
3780;BME280;1905;52.482;9.802;2022-11-20T09:13:06;100609.59;;;0.55;80.77
3780;BME280;1905;52.482;9.802;2022-11-20T09:15:34;100624.34;;;0.56;80.67
3780;BME280;1905;52.482;9.802;2022-11-20T09:18:02;100635.59;;;0.57;81.04
3780;BME280;1905;52.482;9.802;2022-11-20T09:20:31;100641.63;;;0.60;80.94
3780;BME280;1905;52.482;9.802;2022-11-20T09:23:00;100645.97;;;0.58;81.02
3780;BME280;1905;52.482;9.802;2022-11-20T09:25:29;100643.34;;;0.65;80.78
3780;BME280;1905;52.482;9.802;2022-11-20T09:27:58;100645.06;;;0.69;81.19
3780;BME280;1905;52.482;9.802;2022-11-20T09:30:26;100646.78;;;0.70;80.42
3780;BME280;1905;52.482;9.802;2022-11-20T09:32:54;100654.56;;;0.76;80.76
3780;BME280;1905;52.482;9.802;2022-11-20T09:35:22;100657.16;;;0.79;80.76
3780;BME280;1905;52.482;9.802;2022-11-20T09:37:50;100655.41;;;0.78;81.03
3780;BME280;1905;52.482;9.802;2022-11-20T09:40:21;100657.13;;;0.82;81.11
3780;BME280;1905;52.482;9.802;2022-11-20T09:42:55;100650.13;;;0.90;80.69
3780;BME280;1905;52.482;9.802;2022-11-20T09:45:39;100650.19;;;0.87;81.01
3780;BME280;1905;52.482;9.802;2022-11-20T09:48:21;100653.63;;;0.89;80.64
3780;BME280;1905;52.482;9.802;2022-11-20T09:50:57;100651.00;;;0.90;81.06
3780;BME280;1905;52.482;9.802;2022-11-20T09:53:33;100640.63;;;0.92;80.95
3780;BME280;1905;52.482;9.802;2022-11-20T09:56:08;100631.06;;;0.95;81.32
3780;BME280;1905;52.482;9.802;2022-11-20T09:58:40;100631.94;;;0.97;81.30
3780;BME280;1905;52.482;9.802;2022-11-20T10:01:12;100634.50;;;1.02;80.50
3780;BME280;1905;52.482;9.802;2022-11-20T10:03:49;100627.53;;;1.04;79.94
3780;BME280;1905;52.482;9.802;2022-11-20T10:06:21;100621.44;;;1.06;80.66
3780;BME280;1905;52.482;9.802;2022-11-20T10:09:03;100622.28;;;1.13;79.98
3780;BME280;1905;52.482;9.802;2022-11-20T10:11:43;100627.50;;;1.13;79.90
3780;BME280;1905;52.482;9.802;2022-11-20T10:14:23;100627.47;;;1.14;79.96
3780;BME280;1905;52.482;9.802;2022-11-20T10:17:01;100619.66;;;1.19;79.89
3780;BME280;1905;52.482;9.802;2022-11-20T10:19:45;100617.06;;;1.19;80.20
3780;BME280;1905;52.482;9.802;2022-11-20T10:22:24;100616.16;;;1.22;80.76
3780;BME280;1905;52.482;9.802;2022-11-20T10:24:56;100610.09;;;1.24;80.20
3780;BME280;1905;52.482;9.802;2022-11-20T10:27:55;100604.84;;;1.30;79.84
3780;BME280;1905;52.482;9.802;2022-11-20T10:30:27;100609.16;;;1.30;79.73
3780;BME280;1905;52.482;9.802;2022-11-20T10:33:01;100603.97;;;1.28;79.88
3780;BME280;1905;52.482;9.802;2022-11-20T10:35:35;100618.66;;;1.35;79.58
3780;BME280;1905;52.482;9.802;2022-11-20T10:38:09;100618.66;;;1.38;79.42
3780;BME280;1905;52.482;9.802;2022-11-20T10:40:42;100613.44;;;1.38;79.53
3780;BME280;1905;52.482;9.802;2022-11-20T10:43:13;100611.66;;;1.43;79.75
3780;BME280;1905;52.482;9.802;2022-11-20T10:45:50;100618.56;;;1.44;79.67
3780;BME280;1905;52.482;9.802;2022-11-20T10:51:30;100604.66;;;1.50;79.59
3780;BME280;1905;52.482;9.802;2022-11-20T10:54:06;100606.38;;;1.52;79.00
3780;BME280;1905;52.482;9.802;2022-11-20T10:56:41;100605.50;;;1.55;79.37
3780;BME280;1905;52.482;9.802;2022-11-20T10:59:32;100606.31;;;1.58;79.64
3780;BME280;1905;52.482;9.802;2022-11-20T11:02:16;100608.09;;;1.56;79.71
3780;BME280;1905;52.482;9.802;2022-11-20T11:04:46;100597.66;;;1.59;78.85
3780;BME280;1905;52.482;9.802;2022-11-20T11:07:17;100592.41;;;1.65;78.92
3780;BME280;1905;52.482;9.802;2022-11-20T11:09:48;100592.41;;;1.65;78.71
3780;BME280;1905;52.482;9.802;2022-11-20T11:12:16;100588.00;;;1.70;79.96
3780;BME280;1905;52.482;9.802;2022-11-20T11:14:46;100594.06;;;1.72;78.83
3780;BME280;1905;52.482;9.802;2022-11-20T11:17:27;100593.16;;;1.76;78.67
3780;BME280;1905;52.482;9.802;2022-11-20T11:19:59;100587.97;;;1.76;79.48
3780;BME280;1905;52.482;9.802;2022-11-20T11:22:29;100591.41;;;1.78;79.72
3780;BME280;1905;52.482;9.802;2022-11-20T11:24:57;100589.63;;;1.84;79.42
3780;BME280;1905;52.482;9.802;2022-11-20T11:27:25;100585.25;;;1.86;79.39
3780;BME280;1905;52.482;9.802;2022-11-20T11:30:02;100580.91;;;1.86;78.88
3780;BME280;1905;52.482;9.802;2022-11-20T11:32:32;100580.91;;;1.86;78.84
3780;BME280;1905;52.482;9.802;2022-11-20T11:35:00;100588.69;;;1.89;78.24
3780;BME280;1905;52.482;9.802;2022-11-20T11:37:34;100578.28;;;1.88;78.82
3780;BME280;1905;52.482;9.802;2022-11-20T11:40:03;100579.19;;;1.85;78.75
3780;BME280;1905;52.482;9.802;2022-11-20T11:42:54;100586.16;;;1.85;79.00
3780;BME280;1905;52.482;9.802;2022-11-20T11:45:24;100581.78;;;1.87;78.41
3780;BME280;1905;52.482;9.802;2022-11-20T11:47:54;100578.38;;;1.82;78.91
3780;BME280;1905;52.482;9.802;2022-11-20T11:50:25;100586.16;;;1.83;79.32
3780;BME280;1905;52.482;9.802;2022-11-20T11:53:01;100580.06;;;1.83;79.16
3780;BME280;1905;52.482;9.802;2022-11-20T11:55:34;100579.19;;;1.84;79.16
3780;BME280;1905;52.482;9.802;2022-11-20T11:58:15;100585.28;;;1.83;79.38
3780;BME280;1905;52.482;9.802;2022-11-20T12:00:49;100574.88;;;1.79;79.64
3780;BME280;1905;52.482;9.802;2022-11-20T12:03:24;100575.75;;;1.82;79.68
3780;BME280;1905;52.482;9.802;2022-11-20T12:05:57;100573.16;;;1.82;79.57
3780;BME280;1905;52.482;9.802;2022-11-20T12:08:30;100574.03;;;1.80;79.77
3780;BME280;1905;52.482;9.802;2022-11-20T12:11:04;100560.16;;;1.78;79.95
3780;BME280;1905;52.482;9.802;2022-11-20T12:13:42;100558.41;;;1.80;79.54
3780;BME280;1905;52.482;9.802;2022-11-20T12:16:13;100553.19;;;1.80;79.62
3780;BME280;1905;52.482;9.802;2022-11-20T12:18:43;100555.84;;;1.77;80.19
3780;BME280;1905;52.482;9.802;2022-11-20T12:21:19;100560.97;;;1.84;79.80
3780;BME280;1905;52.482;9.802;2022-11-20T12:23:59;100555.81;;;1.80;80.14
3780;BME280;1905;52.482;9.802;2022-11-20T12:26:43;100549.72;;;1.82;79.75
3780;BME280;1905;52.482;9.802;2022-11-20T12:29:19;100555.84;;;1.77;80.05
3780;BME280;1905;52.482;9.802;2022-11-20T12:31:59;100553.22;;;1.77;80.18
3780;BME280;1905;52.482;9.802;2022-11-20T12:34:47;100546.28;;;1.78;80.44
3780;BME280;1905;52.482;9.802;2022-11-20T12:37:30;100546.25;;;1.79;80.64
3780;BME280;1905;52.482;9.802;2022-11-20T12:40:12;100533.28;;;1.78;80.52
3780;BME280;1905;52.482;9.802;2022-11-20T12:42:55;100549.75;;;1.78;80.30
3780;BME280;1905;52.482;9.802;2022-11-20T12:46:14;100534.09;;;1.80;81.18
3780;BME280;1905;52.482;9.802;2022-11-20T12:48:56;100541.06;;;1.79;80.73
3780;BME280;1905;52.482;9.802;2022-11-20T12:51:40;100546.25;;;1.79;80.83
3780;BME280;1905;52.482;9.802;2022-11-20T12:54:32;100537.63;;;1.79;80.91
3780;BME280;1905;52.482;9.802;2022-11-20T12:57:09;100536.72;;;1.82;80.51
3780;BME280;1905;52.482;9.802;2022-11-20T12:59:54;100533.22;;;1.83;80.99
3780;BME280;1905;52.482;9.802;2022-11-20T13:02:30;100525.41;;;1.84;80.69
3780;BME280;1905;52.482;9.802;2022-11-20T13:05:10;100528.00;;;1.83;80.75
3780;BME280;1905;52.482;9.802;2022-11-20T13:07:42;100529.72;;;1.87;80.52
3780;BME280;1905;52.482;9.802;2022-11-20T13:10:18;100535.75;;;1.89;80.26
3780;BME280;1905;52.482;9.802;2022-11-20T13:12:51;100534.06;;;1.86;79.94
3780;BME280;1905;52.482;9.802;2022-11-20T13:15:34;100533.19;;;1.87;80.19
3780;BME280;1905;52.482;9.802;2022-11-20T13:18:07;100541.00;;;1.87;80.33
3780;BME280;1905;52.482;9.802;2022-11-20T13:20:41;100530.56;;;1.89;80.83
3780;BME280;1905;52.482;9.802;2022-11-20T13:23:11;100531.38;;;1.91;80.43
3780;BME280;1905;52.482;9.802;2022-11-20T13:25:39;100528.81;;;1.88;80.96
3780;BME280;1905;52.482;9.802;2022-11-20T13:28:28;100529.66;;;1.93;80.94
3780;BME280;1905;52.482;9.802;2022-11-20T13:30:57;100528.75;;;1.94;80.45
3780;BME280;1905;52.482;9.802;2022-11-20T13:33:30;100533.13;;;1.92;80.81
3780;BME280;1905;52.482;9.802;2022-11-20T13:36:00;100520.97;;;1.92;80.43
3780;BME280;1905;52.482;9.802;2022-11-20T13:38:40;100524.44;;;1.93;80.32